Latest Weather Observations for Alice Springs Airport

IDD60801

Issued at 11:41 pm CST Thursday 28 January 2021 (issued every 10 minutes, with the page automatically refreshed every 10 minutes)

About weather observations | Map of weather stations | Latest weather observations for NT | Other Formats
Station Details ID: 015590 Name: ALICE SPRINGS AIRPORT Lat: -23.80 Lon: 133.89 Height: 546.0 m
Data from the previous 72 hours. | See also: Recent months at Alice Springs Airport
Date/Time
CST
Temp
°C
App
Temp
°C
Dew
Point
°C
Rel
Hum
%
Delta-T
°C
Wind Press
QNH
hPa
Press
MSL
hPa
Rain since
9am
mm
Dir  Spd
km/h
Gust
km/h
Spd
kts
Gust
kts
28/11:30pm 30.3 31.7 18.7 50 7.7 S 9 11 5 6 1007.5 1003.3 0.0
28/11:00pm 30.5 34.3 20.1 53 7.0 CALM 0 0 0 0 1007.4 1003.2 0.0
28/10:30pm 30.6 34.3 19.9 52 7.2 CALM 0 0 0 0 1007.0 1002.8 0.0
28/10:00pm 30.6 32.9 19.9 52 7.2 NE 7 9 4 5 1006.9 1002.7 0.0
28/09:30pm 31.0 33.1 19.0 48 8.0 NE 6 9 3 5 1006.7 1002.5 0.0
28/09:00pm 31.2 32.5 18.5 46 8.4 ENE 9 9 5 5 1006.4 1002.2 0.0
28/08:30pm 31.5 33.1 17.8 44 9.0 ENE 6 7 3 4 1006.0 1001.9 0.0
28/08:00pm 31.8 32.9 18.0 43 9.1 NNE 9 11 5 6 1005.7 1001.5 0.0
28/07:30pm 32.6 33.7 17.2 39 10.0 ESE 7 9 4 5 1005.4 1001.2 0.0
28/07:00pm 33.1 33.7 16.9 38 10.5 E 9 13 5 7 1005.2 1001.0 0.0
28/06:30pm 33.2 33.9 17.0 38 10.6 E 9 15 5 8 1005.0 1000.8 0.0
28/06:00pm 33.3 33.7 16.2 36 11.0 SSE 9 15 5 8 1004.9 1000.7 0.0
28/05:30pm 33.9 33.5 16.3 35 11.4 SSE 13 17 7 9 1004.8 1000.6 0.0
28/05:00pm 34.1 34.1 17.3 36 11.0 ESE 13 19 7 10 1004.9 1000.7 0.0
28/04:30pm 33.7 34.2 16.6 36 11.1 ESE 9 17 5 9 1005.0 1000.8 0.0
28/04:00pm 33.9 33.9 17.2 37 10.9 SE 13 17 7 9 1005.5 1001.3 0.0
28/03:30pm 33.6 34.6 16.9 37 10.9 W 7 11 4 6 1006.0 1001.9 0.0
28/03:00pm 32.9 33.1 16.7 38 10.5 NW 11 17 6 9 1006.4 1002.2 0.0
28/02:30pm 32.7 33.1 17.3 39 10.1 NW 11 17 6 9 1006.9 1002.7 0.0
28/02:00pm 32.2 32.8 16.9 40 9.9 NW 9 15 5 8 1007.1 1002.9 0.0
28/01:30pm 32.3 32.9 17.7 41 9.6 W 11 15 6 8 1007.4 1003.2 0.0
28/01:00pm 31.0 32.4 17.3 43 8.9 N 6 9 3 5 1007.7 1003.6 0.0
28/12:30pm 30.9 31.2 16.9 43 9.0 NE 11 19 6 10 1008.3 1004.1 0.0
28/12:00pm 30.2 30.5 16.9 44 8.6 ESE 11 17 6 9 1008.5 1004.3 0.0
28/11:30am 29.4 29.7 16.9 47 8.0 ENE 11 17 6 9 1008.7 1004.5 0.0
28/11:00am 29.6 30.2 17.8 49 7.7 NNE 11 15 6 8 1009.0 1004.8 0.0
28/10:30am 27.9 28.7 17.4 52 6.8 ESE 9 20 5 11 1009.5 1005.4 0.0
28/10:00am 27.2 27.4 17.7 56 6.1 ENE 13 24 7 13 1009.8 1005.7 0.0
28/09:30am 26.4 26.6 17.7 58 5.6 ENE 13 19 7 10 1009.7 1005.6 0.0
28/09:00am 25.5 26.2 17.9 63 4.9 E 11 15 6 8 1009.8 1005.7 0.8
28/08:30am 24.9 26.2 18.4 67 4.2 SE 9 13 5 7 1009.9 1005.8 0.8
28/08:00am 24.6 25.5 18.3 68 4.1 ESE 11 13 6 7 1009.6 1005.5 0.8
28/07:30am 23.8 24.9 18.9 74 3.2 SSE 11 13 6 7 1009.4 1005.3 0.8
28/07:00am 23.6 25.6 19.1 76 2.9 SSE 7 9 4 5 1009.2 1005.0 0.8
28/06:30am 23.4 24.6 19.1 77 2.8 SE 11 15 6 8 1008.7 1004.5 0.8
28/06:00am 23.0 24.6 19.2 79 2.5 SE 9 11 5 6 1008.6 1004.4 0.8
28/05:30am 23.6 24.6 18.7 74 3.2 SE 11 15 6 8 1008.3 1004.1 0.8
28/05:00am 23.9 25.0 18.8 73 3.3 ESE 11 15 6 8 1007.9 1003.8 0.8
28/04:30am 24.1 26.1 20.0 78 2.7 ESE 9 13 5 7 1007.9 1003.8 0.8
28/04:00am 23.9 27.5 21.2 85 1.8 NNE 4 7 2 4 1008.0 1003.9 0.8
28/03:30am 23.7 27.9 21.8 89 1.3 NE 2 11 1 6 1007.8 1003.7 0.8
28/03:00am 23.9 28.4 21.6 87 1.6 CALM 0 0 0 0 1007.5 1003.3 0.8
28/02:30am 23.7 26.4 21.4 87 1.6 ESE 9 13 5 7 1007.4 1003.2 0.8
28/02:00am 23.9 25.7 21.2 85 1.8 E 13 13 7 7 1008.2 1004.0 0.8
28/01:30am 24.0 25.9 21.3 85 1.8 ENE 13 15 7 8 1008.5 1004.3 0.8
28/01:00am 24.0 26.8 20.9 83 2.1 NE 7 9 4 5 1008.8 1004.6 0.8
28/12:30am 24.4 26.6 20.5 79 2.6 NNE 9 13 5 7 1009.2 1005.0 0.8
28/12:00am 24.9 26.9 21.6 82 2.2 NE 13 15 7 8 1009.6 1005.5 0.8
 
Date/Time
CST
Temp
°C
App
Temp
°C
Dew
Point
°C
Rel
Hum
%
Delta-T
°C
Wind Press
QNH
hPa
Press
MSL
hPa
Rain since
9am
mm
Dir  Spd
km/h
Gust
km/h
Spd
kts
Gust
kts
27/11:30pm 25.2 27.5 21.3 79 2.6 NNE 11 13 6 7 1010.1 1005.9 0.8
27/11:00pm 25.7 24.8 20.7 74 3.3 E 26 33 14 18 1009.7 1005.6 0.8
27/10:30pm 26.8 27.0 20.6 69 4.2 E 20 32 11 17 1009.2 1005.0 0.8
27/10:00pm 26.8 28.8 22.2 76 3.2 E 15 28 8 15 1008.8 1004.6 0.8
27/09:30pm 26.9 29.1 21.9 74 3.4 SE 13 19 7 10 1008.4 1004.2 0.4
27/09:00pm 28.7 29.8 20.4 60 5.6 SSE 15 20 8 11 1008.3 1004.1 0.2
27/08:30pm 29.2 28.9 20.4 59 5.9 SSE 22 30 12 16 1007.3 1003.1 0.2
27/08:00pm 29.2 29.0 21.2 62 5.4 S 24 33 13 18 1006.7 1002.5 0.2
27/07:30pm 29.6 29.2 21.0 60 5.9 SSE 24 35 13 19 1006.0 1001.9 0.2
27/07:00pm 31.9 29.7 18.8 45 8.7 S 28 35 15 19 1005.2 1001.0 0.2
27/06:30pm 32.7 31.5 18.5 43 9.4 SSE 22 30 12 16 1004.9 1000.7 0.2
27/06:00pm 32.9 30.7 18.7 43 9.5 SSE 28 35 15 19 1004.8 1000.6 0.2
27/05:30pm 33.8 32.6 18.3 39 10.3 SSE 22 30 12 16 1004.6 1000.4 0.2
27/05:00pm 34.4 34.6 17.6 37 11.0 SE 13 26 7 14 1004.6 1000.4 0.2
27/04:30pm 35.1 34.0 16.4 32 12.2 SE 17 28 9 15 1004.8 1000.6 0.2
27/04:00pm 34.3 34.1 17.5 36 11.0 SE 15 19 8 10 1005.3 1001.1 0.2
27/03:30pm 34.5 35.0 19.3 40 10.3 ESE 15 24 8 13 1005.7 1001.5 0.2
27/03:00pm 34.2 35.2 19.4 41 10.0 SE 13 20 7 11 1006.1 1002.0 0.2
27/02:30pm 32.7 32.3 18.8 43 9.3 SE 19 30 10 16 1006.5 1002.3 0.2
27/02:00pm 32.2 31.9 19.1 45 8.7 ESE 19 28 10 15 1006.8 1002.6 0.2
27/01:30pm 32.3 32.7 19.9 48 8.4 SE 17 26 9 14 1007.1 1002.9 0.2
27/01:00pm 31.1 32.9 18.8 48 8.1 ENE 7 19 4 10 1007.5 1003.3 0.2
27/12:30pm 31.9 33.4 20.5 51 7.8 SE 13 24 7 13 1007.8 1003.7 0.2
27/12:00pm 29.5 30.0 20.1 57 6.3 SSE 17 22 9 12 1008.4 1004.2 0.2
27/11:30am 29.2 30.8 21.4 63 5.3 SSE 15 24 8 13 1008.7 1004.5 0.2
27/11:00am 28.7 30.1 21.0 63 5.2 SE 15 24 8 13 1009.1 1004.9 0.2
27/10:30am 28.4 30.2 21.2 65 4.9 SSE 13 19 7 10 1009.1 1004.9 0.2
27/10:00am 27.3 28.5 20.6 67 4.5 SSE 15 19 8 10 1009.1 1004.9 0.2
27/09:30am 26.7 28.9 21.9 75 3.3 S 13 17 7 9 1009.2 1005.0 0.0
27/09:08am 26.2 28.7 22.5 80 2.5 SSW 13 19 7 10 1009.3 1005.1 0.0
27/09:00am 25.6 27.3 21.7 79 2.7 SSW 15 20 8 11 1009.3 1005.1 5.2
27/08:40am 25.3 26.8 22.0 82 2.2 SSW 17 20 9 11 1009.3 1005.1 5.2
27/08:35am 25.2 27.0 21.9 82 2.2 SSW 15 20 8 11 1009.3 1005.1 5.2
27/08:30am 25.1 27.4 22.0 83 2.1 SSW 13 19 7 10 1009.2 1005.0 5.2
27/08:21am 25.4 27.3 22.1 82 2.3 SSW 15 20 8 11 1009.3 1005.1 5.2
27/08:00am 25.2 26.6 21.9 82 2.2 SSW 17 24 9 13 1009.1 1004.9 5.2
27/07:30am 24.8 26.6 21.9 84 2.0 S 15 20 8 11 1009.0 1004.8 5.2
27/07:00am 24.6 27.3 22.8 90 1.2 S 13 17 7 9 1008.7 1004.5 5.2
27/06:30am 24.3 27.5 23.1 93 0.8 WSW 11 13 6 7 1008.6 1004.4 5.2
27/06:00am 24.6 28.3 23.2 92 1.0 S 9 13 5 7 1008.2 1004.0 5.2
27/05:30am 24.8 28.7 22.9 89 1.3 SSW 7 13 4 7 1008.0 1003.9 5.2
27/05:00am 24.9 30.0 22.6 87 1.6 CALM 0 0 0 0 1007.9 1003.8 5.2
27/04:30am 24.9 29.8 23.0 89 1.3 SW 2 7 1 4 1007.2 1003.0 5.2
27/04:00am 24.9 30.2 23.1 90 1.2 CALM 0 6 0 3 1007.0 1002.8 5.2
27/03:30am 24.8 27.6 23.0 90 1.2 SW 13 17 7 9 1006.6 1002.4 5.2
27/03:00am 24.8 28.4 23.0 90 1.2 WSW 9 11 5 6 1006.7 1002.5 5.2
27/02:30am 24.9 30.3 23.3 91 1.1 CALM 0 0 0 0 1006.5 1002.3 5.2
27/02:00am 24.9 29.0 23.0 89 1.3 SE 6 9 3 5 1006.1 1002.0 5.2
27/01:30am 25.2 28.4 22.3 84 2.0 SE 9 11 5 6 1006.1 1002.0 5.0
27/01:00am 25.1 27.7 22.6 86 1.7 NE 13 15 7 8 1006.4 1002.2 5.0
27/12:30am 25.2 28.7 22.9 87 1.6 SE 9 11 5 6 1006.1 1002.0 5.0
27/12:00am 25.1 28.1 22.6 86 1.7 SE 11 13 6 7 1006.7 1002.5 5.0
 
Date/Time
CST
Temp
°C
App
Temp
°C
Dew
Point
°C
Rel
Hum
%
Delta-T
°C
Wind Press
QNH
hPa
Press
MSL
hPa
Rain since
9am
mm
Dir  Spd
km/h
Gust
km/h
Spd
kts
Gust
kts
26/11:30pm 25.2 28.7 22.1 83 2.1 N 7 9 4 5 1006.5 1002.3 5.0
26/11:00pm 25.1 26.7 21.4 80 2.5 NE 15 19 8 10 1006.5 1002.3 5.0
26/10:30pm 25.3 26.2 21.6 80 2.5 NNE 19 26 10 14 1006.6 1002.4 5.0
26/10:00pm 25.8 28.2 22.9 84 2.0 NNE 15 19 8 10 1006.5 1002.3 5.0
26/09:30pm 25.4 29.1 23.3 88 1.5 N 9 13 5 7 1006.6 1002.4 5.0
26/09:00pm 25.0 27.7 22.9 88 1.5 N 13 15 7 8 1006.7 1002.5 5.0
26/08:30pm 24.7 27.6 22.4 87 1.6 NE 11 13 6 7 1006.4 1002.2 4.8
26/08:00pm 24.1 26.5 22.2 89 1.3 N 13 17 7 9 1006.0 1001.9 4.8
26/07:47pm 24.5 27.0 22.4 88 1.4 N 13 19 7 10 1005.8 1001.6 4.8
26/07:30pm 24.5 28.0 22.8 90 1.2 N 9 15 5 8 1005.6 1001.4 4.0
26/07:23pm 24.8 26.3 21.3 81 2.4 NNW 15 19 8 10 1005.5 1001.3 3.0
26/07:00pm 25.5 27.8 22.8 85 1.9 NW 15 19 8 10 1005.3 1001.1 2.0
26/06:30pm 25.4 26.8 22.9 86 1.7 SSW 20 30 11 16 1005.1 1000.9 1.6
26/06:27pm 25.5 26.9 22.8 85 1.9 SSW 20 30 11 16 1005.1 1000.9 1.6
26/06:17pm 26.3 27.9 23.2 83 2.2 SW 20 28 11 15 1004.8 1000.6 1.6
26/06:00pm 27.9 30.7 20.5 64 5.0 ESE 6 11 3 6 1004.0 999.8 1.2
26/05:30pm 28.3 27.3 21.3 65 4.8 ESE 28 41 15 22 1003.2 999.0 0.6
26/05:00pm 28.5 25.5 21.3 65 4.9 ESE 39 63 21 34 1002.8 998.6 0.0
26/04:51pm 31.8 26.9 19.1 47 8.5 ESE 43 63 23 34 1002.5 998.2 0.0
26/04:48pm 32.9 28.0 19.0 43 9.3 ESE 43 59 23 32 1002.4 998.1 0.0
26/04:37pm 38.1 35.5 13.3 22 15.6 SE 19 54 10 29 1001.9 997.7 0.0
26/04:30pm 38.2 36.8 13.4 23 15.6 SSE 13 20 7 11 1001.7 997.5 0.0
26/04:00pm 38.0 37.1 12.6 22 15.8 SW 9 15 5 8 1001.7 997.5 0.0
26/03:30pm 37.9 36.6 13.8 23 15.3 W 13 24 7 13 1001.8 997.6 0.0
26/03:00pm 37.5 35.8 14.7 25 14.6 NW 17 28 9 15 1002.4 998.1 0.0
26/02:30pm 36.6 34.9 14.6 27 14.0 WNW 17 28 9 15 1002.8 998.6 0.0
26/02:00pm 37.5 36.8 15.3 26 14.3 WNW 13 19 7 10 1003.1 998.9 0.0
26/01:30pm 37.4 37.8 14.7 26 14.5 - 6 13 3 7 1004.0 999.8 0.0
26/01:00pm 36.1 34.4 14.7 28 13.6 WNW 17 28 9 15 1004.4 1000.2 0.0
26/12:30pm 36.8 35.7 15.3 28 13.8 NW 15 30 8 16 1004.7 1000.5 0.0
26/12:00pm 35.7 36.1 16.4 31 12.6 ENE 9 13 5 7 1005.0 1000.8 0.0
26/11:30am 35.0 35.6 16.8 34 11.9 SE 9 13 5 7 1005.3 1001.1 0.0
26/11:00am 34.0 35.3 17.2 36 11.0 NNW 6 11 3 6 1005.7 1001.5 0.0
26/10:30am 32.8 34.2 17.8 40 9.9 S 7 13 4 7 1006.0 1001.9 0.0
26/10:00am 32.2 34.3 18.0 42 9.3 W 4 9 2 5 1006.5 1002.3 0.0
26/09:30am 31.2 32.3 17.9 45 8.7 WSW 9 17 5 9 1006.7 1002.5 0.0
26/09:00am 31.1 32.0 18.5 47 8.3 WSW 11 19 6 10 1006.7 1002.5 0.0
26/08:30am 30.4 32.2 18.2 48 8.0 WSW 6 11 3 6 1006.7 1002.5 0.0
26/08:00am 30.1 32.9 17.9 48 8.0 CALM 0 0 0 0 1006.6 1002.4 0.0
26/07:30am 27.9 29.4 18.9 58 5.9 WSW 9 13 5 7 1006.4 1002.2 0.0
26/07:00am 27.1 29.2 18.9 61 5.4 NNW 6 7 3 4 1005.9 1001.7 0.0
26/06:30am 26.8 30.0 18.9 62 5.2 CALM 0 0 0 0 1005.4 1001.2 0.0
26/06:00am 26.6 28.0 18.7 62 5.2 ENE 9 11 5 6 1005.0 1000.8 0.0
26/05:30am 27.4 29.1 18.4 58 5.9 SE 7 13 4 7 1004.5 1000.3 0.0
26/05:00am 27.0 28.2 18.3 59 5.7 W 9 9 5 5 1004.0 999.8 0.0
26/04:30am 26.9 28.0 17.9 57 5.8 W 9 11 5 6 1003.5 999.3 0.0
26/04:00am 27.7 28.7 17.8 54 6.4 WSW 9 11 5 6 1003.4 999.2 0.0
26/03:30am 28.9 29.1 17.7 50 7.3 WSW 13 19 7 10 1003.3 999.1 0.0
26/03:00am 28.3 28.6 17.8 53 6.8 W 13 15 7 8 1003.1 998.9 0.0
26/02:30am 28.8 29.4 17.7 51 7.2 WNW 11 13 6 7 1003.1 998.9 0.0
26/02:00am 28.9 29.0 17.4 49 7.4 WNW 13 17 7 9 1003.3 999.1 0.0
26/01:30am 29.5 29.3 17.7 49 7.7 WNW 15 19 8 10 1003.7 999.5 0.0
26/01:00am 29.5 29.7 17.7 49 7.7 WNW 13 15 7 8 1004.1 999.9 0.0
26/12:30am 30.2 30.0 17.6 46 8.2 WNW 15 19 8 10 1004.5 1000.3 0.0
26/12:00am 30.3 30.5 17.7 46 8.2 WNW 13 19 7 10 1004.9 1000.7 0.0

Other formats

Comma delimited format used in spreadsheet applications
http://www.bom.gov.au/fwo/IDD60801/IDD60801.94326.axf

JavaScript Object Notation format (JSON) in row-major order
http://www.bom.gov.au/fwo/IDD60801/IDD60801.94326.json

Data quality

Most of these data are generated automatically and are frequently updated. Quality checks on data are not normally performed. It is possible for incorrect values to appear. Refer to information at About Latest Weather Observations and please check the disclaimer before using these data.